Sterling, ND (58572)

12:07 PM CST on December 18, 2014 (GMT -0600)
Lincoln | Change Station
CLOSE
Current Station
Personal Weather Station
Location: Lincoln, ND
Elevation: 1670 ft
Nearby Weather Stations

Elev 1670 ft 46.76 °N, 100.71 °W | Updated 7 minutes ago

Overcast
Overcast
20.1 °F
Feels Like 13 °F
N
5.3
Wind Variable Wind from South

Today
High -- | Low -- °F
--% Chance of Precip.
Yesterday
High -- | Low -- °F
Precip. -- in
8:21 AM 4:53 PM
Waning Crescent, 13% visible
Pressure 30.17 in
Visibility 7.0 miles
Clouds Overcast 600 ft
Windchill 13 °F
Dew Point 18 °F
Humidity 91%
Rainfall 0.00 in
Snow Depth Not available.
UV 0 out of 12
Pollen .10 out of 12
Air Quality Not available.
Flu Activity Not available.
METAR KBIS 181752Z 16007KT 7SM OVC006 M06/M07 A3008 RMK AO2 SLP216 I6000 T10611072 11061 21089 58005

More Conditions Fewer Conditions

Pressure 30.17 in
Visibility 7.0 miles
Clouds Overcast 600 ft
Windchill 13 °F
Dew Point 18 °F
Humidity 91%
Rainfall 0.00 in
Snow Depth Not available.
UV 0 out of 12
Pollen .10 out of 12
Air Quality Not available.
Flu Activity Not available.
METAR KBIS 181752Z 16007KT 7SM OVC006 M06/M07 A3008 RMK AO2 SLP216 I6000 T10611072 11061 21089 58005

More Conditions Fewer Conditions

10-Day Weather Forecast

Almanac

Astronomy

Dec. 18, 2014 Rise Set
Actual Time
Civil Twilight
Nautical Twilight
Astronomical Twilight
Moon
Length of Visible Light
Length of Day
Tomorrow will be .
, % of the Moon is Illuminated

Today's Extremes

State Highs State Lows

Community

WunderPhotos

Upload Photos

1,778,969 photos uploaded!

WunderBlogs® & News

Nearby

Air Quality

  Air Quality AQ Index Pollutant
Not available.

Snow Depth

Station Depth Elevation

Earthquake Activity

City Distance Mag. Time & Date
Minimum magnitude displayed is 2.5.

Coastal Water Temperatures

Place Temperature

Nearby Weather Stations